Time;durP1;ratioP1;P1;durP2;ratioP2;P2;SDS_P1;SDS_P2;PMS_P1;PMS_P2;Temp;Humidity;BMP_temperature;BMP_pressure;BME280_temperature;BME280_humidity;BME280_pressure;Samples;Min_cycle;Max_cycle;Signal;HPM_P1;HPM_P2
2023/01/17 00:02:12;;;;;;;0.47;0.47;;;4.20;99.90;;;;;;5126004;27;20095;-83
2023/01/17 00:10:11;;;;;;;1.58;0.60;;;4.20;99.90;;;;;;5124072;27;20191;-83
2023/01/17 00:12:38;;;;;;;2.30;0.75;;;4.20;99.90;;;;;;5124135;27;20039;-83
2023/01/17 00:15:04;;;;;;;0.80;0.50;;;4.20;99.90;;;;;;5111708;27;20516;-84
2023/01/17 00:17:30;;;;;;;4.68;0.80;;;4.20;99.90;;;;;;5131829;27;20335;-83
2023/01/17 01:35:18;;;;;;;1.67;0.40;;;3.10;99.90;;;;;;5141601;27;20047;-82
2023/01/17 01:37:44;;;;;;;2.17;0.50;;;3.10;99.90;;;;;;5105983;28;20479;-83
2023/01/17 01:40:10;;;;;;;5.72;0.75;;;3.10;99.90;;;;;;5121053;28;20043;-82
2023/01/17 01:42:36;;;;;;;1.35;0.30;;;3.10;99.90;;;;;;5110220;28;20491;-83
2023/01/17 01:45:15;;;;;;;0.82;0.40;;;3.10;99.90;;;;;;5099703;28;20089;-83
2023/01/17 01:47:41;;;;;;;2.60;0.73;;;3.10;99.90;;;;;;5092384;28;20039;-82
2023/01/17 01:50:10;;;;;;;5.47;0.68;;;3.10;99.90;;;;;;5095946;28;20039;-82
2023/01/17 01:52:42;;;;;;;4.10;0.63;;;3.00;99.90;;;;;;5110463;28;20028;-82
2023/01/17 01:55:14;;;;;;;5.72;0.75;;;3.10;99.90;;;;;;5119533;27;20044;-83
2023/01/17 01:57:47;;;;;;;4.88;1.00;;;3.10;99.90;;;;;;5122970;27;20028;-84
2023/01/17 02:00:25;;;;;;;4.97;0.88;;;3.10;99.90;;;;;;5133471;27;20035;-82
2023/01/17 02:02:53;;;;;;;7.47;0.80;;;3.10;99.90;;;;;;5132194;27;20035;-82
2023/01/17 02:05:22;;;;;;;5.25;1.20;;;3.10;99.90;;;;;;5099265;27;20035;-82
2023/01/17 02:08:08;;;;;;;2.67;0.60;;;3.10;99.90;;;;;;5105713;28;20053;-82
2023/01/17 02:10:36;;;;;;;5.68;0.77;;;3.00;99.90;;;;;;5092174;27;20115;-81
2023/01/17 02:13:02;;;;;;;5.63;0.80;;;3.00;99.90;;;;;;5116909;27;20039;-83
2023/01/17 02:15:49;;;;;;;1.13;0.43;;;2.90;99.90;;;;;;5110136;27;20043;-81
2023/01/17 02:18:38;;;;;;;4.82;0.80;;;2.90;99.90;;;;;;5116153;27;20047;-82
2023/01/17 02:21:18;;;;;;;0.85;0.50;;;2.90;99.90;;;;;;5132153;27;20058;-82
2023/01/17 02:24:29;;;;;;;0.75;0.40;;;2.90;99.90;;;;;;5117014;27;20093;-82
2023/01/17 02:27:06;;;;;;;2.22;0.60;;;2.90;99.90;;;;;;5116939;27;20040;-82
2023/01/17 02:29:38;;;;;;;3.33;1.27;;;2.80;99.90;;;;;;5098788;27;20043;-81
2023/01/17 02:32:31;;;;;;;2.35;0.50;;;2.80;99.90;;;;;;5115187;27;20043;-81
2023/01/17 02:35:09;;;;;;;1.75;0.47;;;2.80;99.90;;;;;;5124034;27;20129;-82
2023/01/17 02:37:57;;;;;;;2.45;0.70;;;2.80;99.90;;;;;;5113494;27;20051;-81
2023/01/17 02:40:28;;;;;;;1.48;0.50;;;2.80;99.90;;;;;;5109782;27;20075;-82
2023/01/17 02:43:10;;;;;;;1.73;0.50;;;2.80;99.90;;;;;;5115829;27;20043;-82
2023/01/17 02:45:36;;;;;;;1.75;0.47;;;2.80;99.90;;;;;;5132427;27;20490;-82
2023/01/17 02:48:03;;;;;;;5.13;0.50;;;2.80;99.90;;;;;;5116413;27;20119;-82
2023/01/17 02:50:52;;;;;;;2.63;0.73;;;2.80;99.90;;;;;;5114696;27;20167;-81
2023/01/17 02:53:41;;;;;;;1.30;0.50;;;2.80;99.90;;;;;;5044099;27;20043;-82
2023/01/17 02:56:12;;;;;;;4.57;0.50;;;2.80;99.90;;;;;;5120227;27;20102;-83
2023/01/17 02:58:57;;;;;;;1.88;0.68;;;2.80;99.90;;;;;;5113651;27;20403;-81
2023/01/17 03:01:44;;;;;;;6.22;1.63;;;2.80;99.90;;;;;;5129034;27;20047;-82
2023/01/17 03:04:18;;;;;;;1.55;0.30;;;2.80;99.90;;;;;;5131664;27;20041;-82
2023/01/17 03:06:52;;;;;;;3.40;0.63;;;2.90;99.90;;;;;;5114424;27;20399;-82
2023/01/17 03:09:19;;;;;;;3.75;0.60;;;2.80;99.90;;;;;;5115449;27;20043;-82
2023/01/17 03:11:45;;;;;;;5.05;0.75;;;2.90;99.90;;;;;;5110978;28;20057;-82
2023/01/17 03:14:11;;;;;;;4.65;0.80;;;2.90;99.90;;;;;;5123046;27;20035;-81
2023/01/17 03:16:37;;;;;;;6.28;0.75;;;3.00;99.90;;;;;;5115604;27;20031;-82
2023/01/17 03:19:03;;;;;;;3.22;1.20;;;3.00;99.90;;;;;;5113420;27;20043;-82
2023/01/17 03:21:29;;;;;;;0.32;0.32;;;3.00;99.90;;;;;;5129400;27;20406;-83
2023/01/17 03:23:54;;;;;;;4.50;1.13;;;3.10;99.90;;;;;;5114875;27;20066;-83
2023/01/17 03:26:20;;;;;;;1.92;0.43;;;3.00;99.90;;;;;;5080428;28;20036;-82
2023/01/17 03:28:46;;;;;;;5.18;0.75;;;2.90;99.90;;;;;;5105200;27;20068;-83
2023/01/17 03:31:16;;;;;;;2.80;0.60;;;2.90;99.90;;;;;;5095662;28;20036;-81
2023/01/17 03:33:42;;;;;;;2.28;0.55;;;2.90;99.90;;;;;;5123731;27;20061;-82
2023/01/17 03:36:07;;;;;;;4.88;0.70;;;2.80;99.90;;;;;;5111860;27;20492;-82
2023/01/17 03:38:33;;;;;;;3.20;0.75;;;2.80;99.90;;;;;;5113864;27;20079;-83
2023/01/17 03:40:59;;;;;;;3.85;0.50;;;2.80;99.90;;;;;;5114667;27;20042;-83
2023/01/17 03:43:24;;;;;;;4.47;0.63;;;2.80;99.90;;;;;;5113212;27;20039;-82
2023/01/17 03:45:53;;;;;;;4.85;0.88;;;2.80;99.90;;;;;;5132385;27;20046;-82
2023/01/17 03:48:19;;;;;;;5.97;0.65;;;2.70;99.90;;;;;;5119521;27;20418;-82
2023/01/17 03:50:49;;;;;;;2.97;0.60;;;2.70;99.90;;;;;;5104713;27;20060;-82
2023/01/17 03:53:14;;;;;;;6.20;0.63;;;2.70;99.90;;;;;;5125494;27;20378;-82
2023/01/17 03:55:40;;;;;;;4.45;0.60;;;2.60;99.90;;;;;;5101746;27;20027;-82
2023/01/17 03:58:05;;;;;;;4.22;0.70;;;2.70;99.90;;;;;;5115939;27;20112;-82
2023/01/17 04:00:31;;;;;;;4.03;0.73;;;2.70;99.90;;;;;;5112143;27;20067;-82
2023/01/17 04:02:57;;;;;;;4.35;0.63;;;2.60;99.90;;;;;;5102053;27;20051;-82
2023/01/17 04:05:22;;;;;;;2.15;0.50;;;2.60;99.90;;;;;;5103981;28;20522;-82
2023/01/17 04:07:48;;;;;;;2.72;0.47;;;2.60;99.90;;;;;;5105592;27;20376;-83
2023/01/17 04:10:14;;;;;;;3.53;0.70;;;2.60;99.90;;;;;;5117866;27;20031;-83
2023/01/17 04:12:40;;;;;;;1.88;0.45;;;2.60;99.90;;;;;;5108210;27;20113;-83
2023/01/17 04:15:06;;;;;;;6.75;0.60;;;2.60;99.90;;;;;;5132289;27;20102;-83
2023/01/17 04:17:32;;;;;;;3.83;0.55;;;2.50;99.90;;;;;;5113314;27;20100;-83
2023/01/17 04:19:58;;;;;;;2.00;0.52;;;2.60;99.90;;;;;;5128560;27;20139;-83
2023/01/17 04:22:23;;;;;;;4.72;0.60;;;2.60;99.90;;;;;;5113948;27;20487;-83
2023/01/17 04:24:49;;;;;;;3.38;0.63;;;2.60;99.90;;;;;;5100559;28;20055;-83
2023/01/17 04:27:15;;;;;;;3.95;0.93;;;2.60;99.90;;;;;;5125705;27;20039;-82
2023/01/17 04:29:40;;;;;;;4.28;0.80;;;2.50;99.90;;;;;;5113070;27;20043;-81
2023/01/17 04:32:06;;;;;;;8.18;1.20;;;2.50;99.90;;;;;;5128635;27;20441;-83
2023/01/17 04:34:32;;;;;;;2.97;0.63;;;2.40;99.90;;;;;;5103476;28;20507;-83
2023/01/17 04:36:57;;;;;;;4.22;0.40;;;2.40;99.90;;;;;;5132743;27;20084;-82
2023/01/17 04:39:23;;;;;;;5.55;0.73;;;2.30;99.90;;;;;;5111395;27;20049;-83
2023/01/17 04:41:49;;;;;;;3.40;0.60;;;2.30;99.90;;;;;;5129720;27;20118;-82
2023/01/17 04:44:14;;;;;;;4.22;0.98;;;2.20;99.90;;;;;;5120407;27;20035;-81
2023/01/17 04:46:40;;;;;;;3.47;0.73;;;2.20;99.90;;;;;;5113108;27;20387;-84
2023/01/17 04:49:05;;;;;;;2.72;0.45;;;2.20;99.90;;;;;;5121540;27;20035;-82
2023/01/17 04:51:31;;;;;;;3.17;0.50;;;2.20;99.90;;;;;;5105937;27;20035;-81
2023/01/17 04:53:57;;;;;;;3.90;0.82;;;2.20;99.90;;;;;;5111803;27;20057;-82
2023/01/17 04:56:22;;;;;;;4.95;0.75;;;2.10;99.90;;;;;;5127790;27;20035;-81
2023/01/17 04:58:48;;;;;;;3.72;0.82;;;2.10;99.90;;;;;;5114739;27;20066;-82
2023/01/17 05:01:14;;;;;;;4.35;0.57;;;2.00;99.90;;;;;;5130033;27;20031;-82
2023/01/17 05:03:39;;;;;;;7.72;1.00;;;2.00;99.90;;;;;;5100296;27;20091;-82
2023/01/17 05:06:05;;;;;;;4.43;0.65;;;2.00;99.90;;;;;;5090956;27;20036;-82
2023/01/17 05:08:31;;;;;;;4.10;0.77;;;2.00;99.90;;;;;;5126462;27;20501;-82
2023/01/17 05:10:56;;;;;;;3.13;0.55;;;1.90;99.90;;;;;;5113512;27;20039;-82
2023/01/17 05:13:22;;;;;;;6.95;0.88;;;2.00;99.90;;;;;;5133961;27;20049;-82
2023/01/17 05:15:47;;;;;;;2.50;0.65;;;1.90;99.90;;;;;;5121471;27;20384;-82
2023/01/17 05:18:15;;;;;;;4.90;0.75;;;2.00;99.90;;;;;;5139495;28;20034;-81
2023/01/17 05:20:41;;;;;;;4.15;0.80;;;1.90;99.90;;;;;;5136838;28;20075;-81
2023/01/17 05:23:06;;;;;;;5.05;1.13;;;1.90;99.90;;;;;;5117844;28;20057;-81
2023/01/17 05:25:33;;;;;;;3.85;0.63;;;1.90;99.90;;;;;;5114996;27;20401;-82
2023/01/17 05:27:59;;;;;;;6.38;0.90;;;1.80;99.90;;;;;;5100293;28;20040;-82
2023/01/17 05:30:26;;;;;;;6.90;1.00;;;1.80;99.90;;;;;;5111301;28;20043;-82
2023/01/17 05:32:54;;;;;;;3.67;0.63;;;1.70;99.90;;;;;;5111797;28;20035;-82
2023/01/17 05:35:22;;;;;;;4.75;0.60;;;1.70;99.90;;;;;;5096651;28;20034;-83
2023/01/17 05:37:49;;;;;;;6.65;0.88;;;1.60;99.90;;;;;;5131296;28;20035;-82
2023/01/17 05:40:22;;;;;;;5.22;0.75;;;1.60;99.90;;;;;;5112181;28;20077;-82
2023/01/17 05:42:50;;;;;;;2.60;0.68;;;1.50;99.90;;;;;;5145808;27;20050;-82
2023/01/17 05:45:16;;;;;;;2.78;0.60;;;1.40;99.90;;;;;;5095428;28;20031;-82
2023/01/17 05:47:43;;;;;;;5.78;0.85;;;1.40;99.90;;;;;;5111836;28;20160;-82
2023/01/17 05:50:11;;;;;;;6.78;1.00;;;1.40;99.90;;;;;;5107788;28;20441;-82
2023/01/17 05:52:37;;;;;;;6.05;0.90;;;1.30;99.90;;;;;;5127656;27;20039;-82
2023/01/17 05:55:03;;;;;;;5.68;1.15;;;1.30;99.90;;;;;;5101018;28;20435;-82
2023/01/17 05:57:28;;;;;;;1.92;0.50;;;1.30;99.90;;;;;;5101875;28;20039;-82
2023/01/17 05:59:54;;;;;;;3.58;0.68;;;1.20;99.90;;;;;;5104084;28;20035;-82
2023/01/17 06:02:19;;;;;;;1.75;0.52;;;1.10;99.90;;;;;;5104607;28;20036;-82
2023/01/17 06:04:45;;;;;;;4.60;0.90;;;1.10;99.90;;;;;;5123158;28;20127;-83
2023/01/17 06:07:10;;;;;;;7.03;0.90;;;1.10;99.90;;;;;;5107769;28;20035;-82
2023/01/17 06:09:36;;;;;;;2.85;0.70;;;1.00;99.90;;;;;;5106532;28;20040;-81
2023/01/17 06:12:02;;;;;;;6.53;1.15;;;1.00;99.90;;;;;;5104798;28;20039;-82
2023/01/17 06:14:27;;;;;;;7.20;1.00;;;1.00;99.90;;;;;;5111797;28;20046;-83
2023/01/17 06:16:53;;;;;;;5.30;0.80;;;1.00;99.90;;;;;;5112019;28;20045;-83
2023/01/17 06:19:18;;;;;;;6.25;1.15;;;1.00;99.90;;;;;;5128811;28;20031;-84
2023/01/17 06:21:44;;;;;;;5.93;1.00;;;0.90;99.90;;;;;;5107265;28;20047;-82
2023/01/17 06:24:09;;;;;;;5.18;0.98;;;0.90;99.90;;;;;;5123660;28;20122;-86
2023/01/17 06:26:35;;;;;;;7.57;1.02;;;0.90;99.90;;;;;;5105994;27;20091;-88
2023/01/17 06:29:01;;;;;;;4.78;0.85;;;1.00;99.90;;;;;;5116306;27;20387;-85
2023/01/17 06:31:27;;;;;;;5.75;0.90;;;1.00;99.90;;;;;;5106530;28;20032;-89
2023/01/17 06:33:52;;;;;;;6.93;1.00;;;1.00;99.90;;;;;;5076145;28;20092;-86
2023/01/17 06:36:18;;;;;;;4.70;0.70;;;1.00;99.90;;;;;;5107298;28;20035;-85
2023/01/17 06:38:44;;;;;;;5.25;1.30;;;1.00;99.90;;;;;;5108635;28;20051;-86
2023/01/17 06:41:09;;;;;;;3.13;0.90;;;1.00;99.90;;;;;;5099948;27;20073;-86
2023/01/17 06:43:35;;;;;;;5.50;0.80;;;1.10;99.90;;;;;;5099747;27;20042;-84
2023/01/17 06:46:01;;;;;;;6.20;0.95;;;1.00;99.90;;;;;;5114472;27;20484;-87
2023/01/17 06:48:26;;;;;;;4.97;1.15;;;1.10;99.90;;;;;;5105688;27;20387;-87
2023/01/17 06:50:52;;;;;;;3.90;0.85;;;1.10;99.90;;;;;;5112014;27;20114;-87
2023/01/17 06:53:18;;;;;;;3.92;0.70;;;1.10;99.90;;;;;;5099614;27;20039;-83
2023/01/17 06:55:43;;;;;;;4.57;0.85;;;1.10;99.90;;;;;;5111057;28;20032;-86
2023/01/17 06:58:09;;;;;;;5.90;0.60;;;1.10;99.90;;;;;;5096462;28;20048;-86
2023/01/17 07:00:35;;;;;;;2.63;0.57;;;1.10;99.90;;;;;;5146890;27;20039;-86
2023/01/17 07:03:01;;;;;;;4.32;0.57;;;1.10;99.90;;;;;;5140874;27;20034;-87
2023/01/17 07:05:27;;;;;;;3.38;0.70;;;1.20;99.90;;;;;;5124401;27;20597;-87
2023/01/17 07:07:53;;;;;;;4.68;0.98;;;1.10;99.90;;;;;;5133196;27;20092;-89
2023/01/17 07:10:19;;;;;;;4.78;0.73;;;1.10;99.90;;;;;;5109476;27;20178;-88
2023/01/17 07:12:45;;;;;;;2.30;0.63;;;1.10;99.90;;;;;;5137029;27;20122;-85
2023/01/17 07:15:11;;;;;;;2.53;0.55;;;1.10;99.90;;;;;;5143558;27;20458;-88
2023/01/17 07:17:37;;;;;;;3.40;0.60;;;1.10;99.90;;;;;;5141398;27;20039;-89
2023/01/17 07:20:03;;;;;;;3.10;0.80;;;1.10;99.90;;;;;;5125785;27;20043;-90
2023/01/17 07:22:29;;;;;;;5.10;0.73;;;1.00;99.90;;;;;;5102626;27;20136;-88
2023/01/17 07:24:57;;;;;;;2.33;0.70;;;1.00;99.90;;;;;;5112989;28;20075;-88
2023/01/17 07:27:24;;;;;;;6.65;1.00;;;1.00;99.90;;;;;;5125053;27;20079;-87
2023/01/17 07:29:50;;;;;;;2.72;0.63;;;1.00;99.90;;;;;;5122140;27;20044;-84
2023/01/17 07:32:16;;;;;;;4.63;0.60;;;1.00;99.90;;;;;;5113643;28;20039;-87
2023/01/17 07:34:41;;;;;;;1.65;0.60;;;1.10;99.90;;;;;;5102595;28;20031;-89
2023/01/17 07:37:07;;;;;;;1.23;0.50;;;1.10;99.90;;;;;;5112617;28;20038;-89
2023/01/17 07:39:33;;;;;;;4.35;0.88;;;1.00;99.90;;;;;;5100544;28;20044;-86
2023/01/17 07:41:59;;;;;;;4.65;0.75;;;1.00;99.90;;;;;;5109093;28;20075;-90
2023/01/17 07:44:24;;;;;;;1.58;0.82;;;1.00;99.90;;;;;;5109477;28;20104;-89
2023/01/17 07:46:50;;;;;;;3.00;1.10;;;1.00;99.90;;;;;;5114573;28;20032;-91
2023/01/17 07:49:15;;;;;;;2.35;0.70;;;0.90;99.90;;;;;;5089525;28;20689;-86
2023/01/17 07:51:41;;;;;;;3.58;0.80;;;0.90;99.90;;;;;;5111121;28;20099;-86
2023/01/17 07:54:06;;;;;;;4.10;0.80;;;0.90;99.90;;;;;;5110425;28;20536;-86
2023/01/17 07:56:33;;;;;;;4.07;0.82;;;0.90;99.90;;;;;;5104839;28;20044;-88
2023/01/17 07:59:00;;;;;;;2.95;0.90;;;1.00;99.90;;;;;;5104571;28;20058;-88
2023/01/17 08:01:26;;;;;;;5.20;1.25;;;1.00;99.90;;;;;;5121927;28;20035;-92
2023/01/17 08:03:53;;;;;;;3.10;1.00;;;1.00;99.90;;;;;;5121842;28;20038;-85
2023/01/17 08:06:20;;;;;;;5.32;0.98;;;1.00;99.90;;;;;;5114901;28;20092;-86
2023/01/17 08:08:46;;;;;;;9.07;1.35;;;1.00;99.90;;;;;;5105372;28;20040;-82
2023/01/17 08:11:13;;;;;;;4.22;0.80;;;1.00;99.90;;;;;;5106256;27;20039;-87
2023/01/17 08:13:41;;;;;;;5.22;1.17;;;1.10;99.90;;;;;;5100741;28;20353;-85
2023/01/17 08:16:09;;;;;;;6.03;1.27;;;1.10;99.90;;;;;;5111268;28;20039;-86
2023/01/17 08:18:35;;;;;;;4.40;1.15;;;1.20;99.90;;;;;;5112815;28;20039;-85
2023/01/17 08:21:00;;;;;;;5.78;0.90;;;1.30;99.90;;;;;;5109670;28;20064;-86
2023/01/17 08:23:26;;;;;;;2.03;0.57;;;1.40;99.90;;;;;;5117047;27;20043;-86
2023/01/17 08:25:52;;;;;;;4.25;0.90;;;1.50;99.90;;;;;;5135210;27;20063;-85
2023/01/17 08:28:18;;;;;;;3.40;0.70;;;1.60;99.90;;;;;;5128166;27;20054;-88
2023/01/17 08:30:44;;;;;;;5.75;1.10;;;1.70;99.90;;;;;;5147421;27;20043;-92
2023/01/17 08:33:10;;;;;;;4.05;0.77;;;1.70;99.90;;;;;;5113023;27;20094;-89
2023/01/17 08:35:36;;;;;;;4.57;0.88;;;1.60;99.90;;;;;;5134305;27;20411;-87
2023/01/17 08:38:03;;;;;;;3.83;0.65;;;1.60;99.90;;;;;;5133643;27;20103;-91
2023/01/17 08:40:32;;;;;;;6.63;0.98;;;1.60;99.90;;;;;;5113989;27;20039;-91
2023/01/17 08:42:59;;;;;;;3.35;0.85;;;1.60;99.90;;;;;;5110792;27;20035;-90
2023/01/17 08:45:26;;;;;;;3.13;0.82;;;1.60;99.90;;;;;;5115439;27;20043;-88
2023/01/17 08:47:52;;;;;;;4.70;0.85;;;1.60;99.90;;;;;;5106214;27;20066;-90
2023/01/17 08:50:21;;;;;;;4.90;1.20;;;1.60;99.90;;;;;;5124544;27;20088;-92
2023/01/17 08:52:47;;;;;;;2.92;0.85;;;1.60;99.90;;;;;;5109219;27;20114;-91
2023/01/17 08:55:13;;;;;;;4.40;0.85;;;1.60;99.90;;;;;;5118815;27;20387;-89
2023/01/17 08:57:39;;;;;;;2.17;0.80;;;1.60;99.90;;;;;;5125268;27;20042;-91
2023/01/17 09:00:06;;;;;;;3.85;1.35;;;1.60;99.90;;;;;;5098385;28;20075;-87
2023/01/17 09:02:32;;;;;;;3.58;0.95;;;1.60;99.90;;;;;;5137011;27;20491;-87
2023/01/17 09:04:57;;;;;;;3.55;1.10;;;1.60;99.90;;;;;;5124411;27;20069;-88
2023/01/17 09:07:23;;;;;;;7.35;2.03;;;1.70;99.90;;;;;;5084925;27;20555;-86
2023/01/17 09:09:51;;;;;;;5.90;1.42;;;1.70;99.90;;;;;;5124859;27;20070;-86
2023/01/17 09:12:17;;;;;;;4.95;1.00;;;1.70;99.90;;;;;;5102474;28;20094;-87
2023/01/17 09:14:42;;;;;;;2.80;1.08;;;1.80;99.90;;;;;;5130045;27;20074;-88
2023/01/17 09:17:08;;;;;;;4.05;1.25;;;1.80;99.90;;;;;;5112929;27;20126;-88
2023/01/17 09:19:34;;;;;;;4.85;1.55;;;1.80;99.90;;;;;;5113703;27;20039;-88
2023/01/17 09:22:00;;;;;;;6.75;1.55;;;1.80;99.90;;;;;;5131816;27;20031;-87
2023/01/17 09:24:26;;;;;;;4.38;1.15;;;1.80;99.90;;;;;;5108498;28;20475;-88
2023/01/17 09:26:52;;;;;;;4.85;1.50;;;1.80;99.90;;;;;;5097782;27;20031;-89
2023/01/17 09:29:17;;;;;;;5.25;1.40;;;1.80;99.90;;;;;;5102969;28;20043;-90
2023/01/17 09:31:46;;;;;;;9.10;1.67;;;1.70;99.90;;;;;;5096462;27;20039;-87
2023/01/17 09:34:12;;;;;;;5.75;1.67;;;1.70;99.90;;;;;;5113612;28;20039;-90
2023/01/17 09:36:37;;;;;;;6.47;1.63;;;1.80;99.90;;;;;;5123252;27;20065;-91
2023/01/17 09:39:03;;;;;;;8.75;1.60;;;1.90;99.90;;;;;;5129832;28;20644;-87
2023/01/17 09:41:32;;;;;;;5.38;1.35;;;1.90;99.90;;;;;;5113712;28;20126;-87
2023/01/17 09:44:11;;;;;;;5.65;1.90;;;2.00;99.90;;;;;;5132006;28;20038;-87
2023/01/17 09:46:42;;;;;;;6.50;1.45;;;2.00;99.90;;;;;;5114394;28;20043;-86
2023/01/17 09:49:16;;;;;;;6.20;1.52;;;2.10;99.90;;;;;;5114781;28;20039;-86
2023/01/17 09:51:42;;;;;;;7.55;1.67;;;2.20;99.90;;;;;;5114755;28;20036;-86
2023/01/17 09:54:22;;;;;;;7.05;1.83;;;2.20;99.90;;;;;;5114518;28;20037;-86
2023/01/17 09:57:18;;;;;;;6.15;1.70;;;2.30;99.90;;;;;;5113470;28;20042;-87
2023/01/17 10:00:02;;;;;;;6.38;1.65;;;2.30;99.90;;;;;;5115809;27;20043;-86
2023/01/17 10:03:04;;;;;;;6.05;1.50;;;2.30;99.90;;;;;;5115533;28;20127;-86
2023/01/17 10:05:39;;;;;;;5.38;1.50;;;2.40;99.90;;;;;;5133188;28;20031;-86
2023/01/17 10:08:46;;;;;;;5.78;1.50;;;2.40;99.90;;;;;;5114486;28;20065;-87
2023/01/17 10:11:33;;;;;;;4.50;1.30;;;2.50;99.90;;;;;;5028677;28;20351;-86
2023/01/17 10:14:20;;;;;;;5.65;1.15;;;2.60;99.90;;;;;;5012427;28;20498;-87
2023/01/17 10:16:51;;;;;;;4.65;1.10;;;2.60;99.90;;;;;;5032285;28;20393;-87
2023/01/17 10:19:38;;;;;;;4.07;1.20;;;2.70;99.90;;;;;;5029868;28;20068;-87
2023/01/17 10:22:48;;;;;;;2.72;1.15;;;2.80;99.90;;;;;;5050933;28;20464;-86
2023/01/17 10:25:45;;;;;;;8.75;1.60;;;2.80;99.90;;;;;;4992541;28;20121;-88
2023/01/17 10:28:21;;;;;;;6.53;1.33;;;2.80;99.90;;;;;;4975550;28;20042;-86
2023/01/17 10:31:23;;;;;;;3.65;1.13;;;2.90;99.90;;;;;;4959818;28;20047;-87
2023/01/17 10:34:02;;;;;;;5.03;1.42;;;3.00;99.90;;;;;;4982368;28;20129;-88
2023/01/17 10:36:36;;;;;;;5.60;1.50;;;3.00;99.90;;;;;;5008073;28;20042;-87
2023/01/17 10:39:19;;;;;;;8.20;1.55;;;3.00;99.90;;;;;;4991796;28;20093;-87
2023/01/17 10:42:07;;;;;;;5.20;1.30;;;3.10;99.90;;;;;;4992253;28;20050;-86
2023/01/17 10:45:04;;;;;;;4.60;1.15;;;3.10;99.90;;;;;;4993419;28;20063;-87
2023/01/17 10:47:35;;;;;;;4.88;1.38;;;3.30;99.90;;;;;;5054652;28;20041;-87
2023/01/17 10:50:03;;;;;;;2.88;1.00;;;3.30;99.90;;;;;;5037864;28;20045;-87
2023/01/17 10:52:46;;;;;;;4.00;1.30;;;3.30;99.90;;;;;;5054645;28;20048;-86
2023/01/17 10:55:23;;;;;;;6.97;1.67;;;3.30;99.90;;;;;;5035522;28;20120;-87
2023/01/17 10:57:50;;;;;;;3.83;1.35;;;3.40;99.90;;;;;;5027476;28;20017;-87
2023/01/17 11:00:21;;;;;;;3.75;1.35;;;3.40;99.90;;;;;;5098154;28;20094;-88
2023/01/17 11:02:49;;;;;;;5.45;1.63;;;3.50;99.90;;;;;;5096454;28;20126;-86
2023/01/17 11:05:27;;;;;;;3.60;1.33;;;3.60;99.90;;;;;;5096172;27;20035;-83
2023/01/17 11:08:05;;;;;;;5.07;1.13;;;3.70;99.90;;;;;;5126050;27;20039;-88
2023/01/17 11:10:48;;;;;;;4.70;1.70;;;3.70;99.90;;;;;;5108304;27;20044;-88
2023/01/17 11:13:28;;;;;;;5.80;1.38;;;3.70;99.90;;;;;;5135081;27;20476;-90
2023/01/17 11:16:04;;;;;;;3.92;1.30;;;3.80;99.90;;;;;;5115553;27;20103;-84
2023/01/17 11:18:33;;;;;;;4.78;1.45;;;3.80;99.90;;;;;;5119632;27;20430;-89
2023/01/17 11:21:14;;;;;;;5.40;1.67;;;3.80;99.90;;;;;;5123828;27;20269;-86
2023/01/17 11:23:42;;;;;;;6.68;1.75;;;3.80;99.90;;;;;;5119140;27;20047;-88
2023/01/17 11:26:19;;;;;;;7.93;1.70;;;3.80;99.90;;;;;;5134329;27;20051;-89
2023/01/17 11:28:45;;;;;;;6.25;1.77;;;3.80;99.90;;;;;;5151025;27;20035;-89
2023/01/17 11:31:15;;;;;;;4.88;1.70;;;3.90;99.90;;;;;;5118509;27;20114;-88
2023/01/17 11:33:54;;;;;;;3.30;1.13;;;4.00;99.90;;;;;;5117046;28;20073;-88
2023/01/17 11:36:29;;;;;;;7.05;1.60;;;4.00;99.90;;;;;;5128546;27;20090;-87
2023/01/17 11:39:18;;;;;;;3.75;1.38;;;4.10;99.90;;;;;;5144299;27;20040;-88
2023/01/17 11:41:46;;;;;;;6.50;1.48;;;4.10;99.90;;;;;;5114558;28;20065;-90
2023/01/17 11:44:24;;;;;;;5.97;1.52;;;4.20;99.90;;;;;;5123777;27;20103;-88
2023/01/17 11:47:11;;;;;;;5.85;1.42;;;4.20;99.90;;;;;;5113182;27;20391;-89
2023/01/17 11:49:38;;;;;;;4.40;1.52;;;4.20;99.90;;;;;;5098295;28;20050;-90
2023/01/17 11:52:23;;;;;;;7.50;1.33;;;4.20;99.90;;;;;;5134798;27;20092;-89
2023/01/17 11:54:50;;;;;;;3.88;1.40;;;4.20;99.90;;;;;;5113496;27;20039;-91
2023/01/17 11:57:23;;;;;;;6.25;1.30;;;4.30;99.90;;;;;;5098671;27;20143;-86
2023/01/17 11:59:57;;;;;;;3.17;1.05;;;4.30;99.90;;;;;;5131091;27;20088;-89
2023/01/17 12:02:32;;;;;;;5.18;1.35;;;4.40;99.90;;;;;;5136203;27;20134;-90
2023/01/17 12:05:03;;;;;;;4.50;1.30;;;4.40;99.90;;;;;;5135981;27;20039;-92
2023/01/17 12:07:56;;;;;;;4.68;1.15;;;4.40;99.90;;;;;;5125519;27;20042;-88
2023/01/17 12:10:30;;;;;;;2.97;1.13;;;4.50;99.90;;;;;;5111989;27;20081;-88
2023/01/17 12:16:38;;;;;;;4.57;1.02;;;4.60;99.90;;;;;;5129701;27;20438;-90
2023/01/17 12:19:36;;;;;;;4.40;1.15;;;4.60;99.90;;;;;;5136350;27;20050;-89
2023/01/17 12:22:10;;;;;;;5.80;1.60;;;4.70;99.90;;;;;;5112634;28;20122;-90
2023/01/17 12:24:53;;;;;;;5.05;1.45;;;4.60;99.90;;;;;;5114199;27;20551;-89
2023/01/17 12:27:28;;;;;;;4.88;1.50;;;4.60;99.90;;;;;;5121085;27;20372;-89
2023/01/17 12:30:31;;;;;;;3.85;1.23;;;4.70;99.90;;;;;;5130701;27;20386;-89
2023/01/17 12:33:16;;;;;;;4.65;1.30;;;4.70;99.90;;;;;;5120096;27;20068;-89
2023/01/17 12:35:49;;;;;;;3.00;1.13;;;4.70;99.90;;;;;;5118092;27;20439;-87
2023/01/17 12:38:23;;;;;;;6.13;1.50;;;4.80;99.90;;;;;;5120640;27;20047;-89
2023/01/17 12:41:01;;;;;;;7.43;1.80;;;4.70;99.90;;;;;;5111174;27;20058;-88
2023/01/17 12:43:32;;;;;;;3.70;1.20;;;4.70;99.90;;;;;;5092339;28;20032;-88
2023/01/17 12:46:02;;;;;;;9.48;2.33;;;4.70;99.90;;;;;;5104096;28;20189;-86
2023/01/17 12:48:33;;;;;;;4.15;1.40;;;4.70;99.90;;;;;;5097027;28;20490;-86
2023/01/17 12:51:11;;;;;;;;;;;4.80;99.90;;;;;;5110945;28;20063;-87
2023/01/17 12:53:58;;;;;;;6.95;1.30;;;4.80;99.90;;;;;;5111328;28;19974;-86
2023/01/17 12:56:44;;;;;;;5.90;1.25;;;4.80;99.90;;;;;;5097628;27;20084;-86
2023/01/17 12:59:42;;;;;;;5.22;1.58;;;4.80;99.90;;;;;;5132074;27;20078;-85
2023/01/17 13:02:39;;;;;;;5.65;1.48;;;4.80;99.90;;;;;;5109390;28;20042;-87
2023/01/17 13:05:47;;;;;;;4.10;1.27;;;4.80;99.90;;;;;;5132032;27;20086;-85
2023/01/17 13:08:31;;;;;;;4.05;1.00;;;4.80;99.90;;;;;;5029987;28;20084;-87
2023/01/17 13:11:27;;;;;;;4.30;1.65;;;4.80;99.90;;;;;;5015304;28;20037;-84
2023/01/17 13:13:56;;;;;;;5.90;1.60;;;4.80;99.90;;;;;;5048509;28;20088;-85
2023/01/17 13:16:43;;;;;;;6.90;1.45;;;4.80;99.90;;;;;;5048606;28;20529;-90
2023/01/17 13:19:35;;;;;;;6.05;1.50;;;4.80;99.90;;;;;;5031211;28;20491;-86
2023/01/17 13:22:05;;;;;;;5.72;1.42;;;4.80;99.90;;;;;;5031794;28;20041;-92
2023/01/17 13:24:36;;;;;;;6.53;1.40;;;4.90;99.90;;;;;;5014936;28;20068;-91
2023/01/17 13:27:37;;;;;;;7.50;1.70;;;5.00;99.90;;;;;;5029555;28;20056;-87
2023/01/17 13:30:30;;;;;;;4.78;1.50;;;5.00;99.90;;;;;;5028486;28;20076;-87
2023/01/17 13:33:24;;;;;;;5.53;1.60;;;5.10;99.90;;;;;;5046874;28;20056;-85
2023/01/17 13:36:19;;;;;;;4.07;1.20;;;5.20;99.90;;;;;;5060365;28;20135;-86
2023/01/17 13:38:53;;;;;;;9.30;1.85;;;5.20;99.90;;;;;;5064249;28;20046;-86
2023/01/17 13:41:34;;;;;;;5.07;1.52;;;5.20;99.90;;;;;;5111255;28;20047;-86
2023/01/17 13:47:00;;;;;;;6.20;1.27;;;5.00;99.90;;;;;;5137398;27;20047;-85
2023/01/17 13:49:29;;;;;;;6.32;1.60;;;5.10;99.90;;;;;;5112716;27;20043;-87
2023/01/17 13:52:19;;;;;;;3.47;1.20;;;5.10;99.90;;;;;;5125247;27;20395;-87
2023/01/17 13:54:47;;;;;;;4.13;1.52;;;5.10;99.90;;;;;;5113464;27;20039;-87
2023/01/17 13:57:45;;;;;;;7.53;1.77;;;5.10;99.90;;;;;;5130616;27;20034;-87
2023/01/17 14:00:20;;;;;;;5.32;1.50;;;5.10;99.90;;;;;;5099324;27;20544;-85
2023/01/17 14:02:47;;;;;;;4.88;1.30;;;5.00;99.90;;;;;;5104376;28;20058;-85
2023/01/17 14:05:19;;;;;;;3.53;1.20;;;4.90;99.90;;;;;;5123362;27;20081;-84
2023/01/17 14:07:51;;;;;;;5.68;1.90;;;4.90;99.90;;;;;;5121091;27;20100;-81
2023/01/17 14:10:32;;;;;;;4.72;1.48;;;5.00;99.90;;;;;;5111122;27;20042;-82
2023/01/17 14:12:59;;;;;;;7.07;2.00;;;5.10;99.90;;;;;;5130560;27;20036;-82
2023/01/17 14:15:27;;;;;;;4.15;1.10;;;5.10;99.90;;;;;;5133587;27;20440;-80
2023/01/17 14:18:03;;;;;;;4.70;1.65;;;4.90;99.90;;;;;;5134015;27;20042;-81
2023/01/17 14:20:39;;;;;;;4.43;1.15;;;4.90;99.90;;;;;;5105408;27;20124;-81
2023/01/17 14:23:24;;;;;;;6.03;1.40;;;4.80;99.90;;;;;;5106752;27;20394;-80
2023/01/17 14:25:51;;;;;;;4.80;1.42;;;4.80;99.90;;;;;;5100817;27;20042;-81
2023/01/17 14:28:28;;;;;;;4.88;1.25;;;4.70;99.90;;;;;;5115712;27;20027;-81
2023/01/17 14:30:55;;;;;;;4.65;1.50;;;4.70;99.90;;;;;;5116997;27;20118;-81
2023/01/17 14:33:33;;;;;;;4.88;1.60;;;4.70;99.90;;;;;;5145748;27;20042;-80
2023/01/17 14:36:04;;;;;;;4.13;1.60;;;4.70;99.90;;;;;;5121816;27;20091;-81
2023/01/17 14:38:31;;;;;;;4.25;1.52;;;4.70;99.90;;;;;;5119602;27;20039;-81
2023/01/17 14:41:06;;;;;;;6.18;1.48;;;4.60;99.90;;;;;;5117346;27;20039;-80
2023/01/17 14:43:34;;;;;;;5.13;1.67;;;4.60;99.90;;;;;;5117765;27;20039;-80
2023/01/17 14:46:06;;;;;;;8.95;2.03;;;4.50;99.90;;;;;;5120932;27;20494;-80
2023/01/17 14:48:32;;;;;;;4.75;1.65;;;4.50;99.90;;;;;;5094113;27;20043;-81
2023/01/17 14:50:59;;;;;;;3.40;1.30;;;4.40;99.90;;;;;;5101408;27;20045;-82